Bern Belp Airport LSZB

Airport Data

Name: Bern Belp Airport

Ident: LSZB

Lat: 46.91410065

Long: 7.497149944

Elevation: 1674 ft

IataCode: BRN

City: Bern

Homepage: http://www.flughafenbern.ch/

Metar

2021/09/28 05:50
LSZB 280550Z VRB02KT 9999 FEW041 BKN050 13/11 Q1023 NOSIG

Taf

Add a Webcam Url. We will unlock it as soon is possible. Thank you:
Url: Title: